createdAt,value
2017-09-11T00:02:11.522Z,57.80
2017-09-11T00:04:38.028Z,56.70
2017-09-11T00:07:04.385Z,56.40
2017-09-11T00:09:30.722Z,57.10
2017-09-11T00:11:57.799Z,56.50
2017-09-11T00:14:24.224Z,56.50
2017-09-11T00:16:50.595Z,56.50
2017-09-11T00:19:16.961Z,56.80
2017-09-11T00:21:43.305Z,56.90
2017-09-11T00:24:09.654Z,57.70
2017-09-11T00:26:39.005Z,57.70
2017-09-11T00:29:05.695Z,57.70
2017-09-11T00:31:31.876Z,57.40
2017-09-11T00:33:58.066Z,56.30
2017-09-11T00:36:24.263Z,56.30
2017-09-11T00:38:53.684Z,56.70
2017-09-11T00:41:19.873Z,56.70
2017-09-11T00:43:46.790Z,56.70
2017-09-11T00:46:13.710Z,56.90
2017-09-11T00:48:40.662Z,56.90
2017-09-11T00:51:06.833Z,56.80
2017-09-11T00:53:33.011Z,56.50
2017-09-11T00:55:59.204Z,56.90
2017-09-11T00:58:25.419Z,57.00
2017-09-11T01:00:51.557Z,57.30
2017-09-11T01:03:17.732Z,57.50
2017-09-11T01:05:44.667Z,57.10
2017-09-11T01:08:10.886Z,57.10
2017-09-11T01:10:37.073Z,57.10
2017-09-11T01:13:04.032Z,57.40
2017-09-11T01:15:30.306Z,57.40
2017-09-11T01:17:56.497Z,57.40
2017-09-11T01:20:22.674Z,57.80
2017-09-11T01:22:49.608Z,58.00
2017-09-11T01:25:15.781Z,58.00
2017-09-11T01:27:42.689Z,58.40
2017-09-11T01:30:08.891Z,58.40
2017-09-11T01:32:35.058Z,58.80
2017-09-11T01:35:01.268Z,59.70
2017-09-11T01:37:27.491Z,59.50
2017-09-11T01:39:53.657Z,59.90
2017-09-11T01:42:19.833Z,60.20
2017-09-11T01:44:46.017Z,60.40
2017-09-11T01:47:12.153Z,60.20
2017-09-11T01:49:38.309Z,60.40
2017-09-11T01:52:04.462Z,60.80
2017-09-11T01:54:30.631Z,60.90
2017-09-11T01:56:56.761Z,61.30
2017-09-11T01:59:22.900Z,61.00
2017-09-11T02:01:49.085Z,61.80
2017-09-11T02:04:15.258Z,61.70
2017-09-11T02:06:42.158Z,62.50
2017-09-11T02:09:08.285Z,62.60
2017-09-11T02:11:34.652Z,62.60
2017-09-11T02:14:01.105Z,62.20
2017-09-11T02:16:27.278Z,62.30
2017-09-11T02:18:54.357Z,62.30
2017-09-11T02:21:20.553Z,62.40
2017-09-11T02:23:46.756Z,61.90
2017-09-11T02:26:12.928Z,62.10
2017-09-11T02:28:39.262Z,62.60
2017-09-11T02:31:05.602Z,61.70
2017-09-11T02:33:31.962Z,62.10
2017-09-11T02:35:58.320Z,62.00
2017-09-11T02:38:25.391Z,61.70
2017-09-11T02:40:51.733Z,61.70
2017-09-11T02:43:18.106Z,61.70
2017-09-11T02:45:44.429Z,61.20
2017-09-11T02:48:10.782Z,61.00
2017-09-11T02:50:37.091Z,61.10
2017-09-11T02:53:03.438Z,61.00
2017-09-11T02:55:29.764Z,60.60
2017-09-11T02:57:56.873Z,60.70
2017-09-11T03:00:23.989Z,60.90
2017-09-11T03:02:50.512Z,61.10
2017-09-11T03:05:16.866Z,60.70
2017-09-11T03:07:43.973Z,60.80
2017-09-11T03:10:11.069Z,61.30
2017-09-11T03:12:37.408Z,61.60
2017-09-11T03:15:03.782Z,60.90
2017-09-11T03:17:30.155Z,61.30
2017-09-11T03:19:56.542Z,60.90
2017-09-11T03:22:22.939Z,60.70
2017-09-11T03:24:49.265Z,61.40
2017-09-11T03:27:17.695Z,61.80
2017-09-11T03:29:44.897Z,62.60
2017-09-11T03:32:11.254Z,63.40
2017-09-11T03:34:38.346Z,64.10
2017-09-11T03:37:04.812Z,64.50
2017-09-11T03:39:31.506Z,64.20
2017-09-11T03:41:57.849Z,64.30
2017-09-11T03:44:25.863Z,64.50
2017-09-11T03:46:52.217Z,64.80
2017-09-11T03:49:18.549Z,65.10
2017-09-11T03:51:44.968Z,65.50
2017-09-11T03:54:11.360Z,65.90
2017-09-11T03:56:38.341Z,65.60
2017-09-11T03:59:04.669Z,64.90
2017-09-11T04:01:30.995Z,64.30
2017-09-11T04:03:57.328Z,64.80
2017-09-11T04:06:24.434Z,65.40
2017-09-11T04:08:50.806Z,65.50
2017-09-11T04:11:17.163Z,65.10
2017-09-11T04:13:43.543Z,65.30
2017-09-11T04:16:12.758Z,65.00
2017-09-11T04:18:39.966Z,65.80
2017-09-11T04:21:06.325Z,65.80
2017-09-11T04:23:32.653Z,65.60
2017-09-11T04:25:58.981Z,65.80
2017-09-11T04:28:25.829Z,66.70
2017-09-11T04:30:51.979Z,65.90
2017-09-11T04:33:18.122Z,66.40
2017-09-11T04:35:45.083Z,67.60
2017-09-11T04:38:11.240Z,67.20
2017-09-11T04:40:37.588Z,67.80
2017-09-11T04:43:05.952Z,67.40
2017-09-11T04:45:32.122Z,67.70
2017-09-11T04:47:58.279Z,67.70
2017-09-11T04:50:24.435Z,67.80
2017-09-11T04:52:50.613Z,67.60
2017-09-11T04:55:16.833Z,67.70
2017-09-11T04:57:43.008Z,68.30
2017-09-11T05:00:12.257Z,67.90
2017-09-11T05:02:39.457Z,67.70
2017-09-11T05:05:05.614Z,67.70
2017-09-11T05:07:31.993Z,67.70
2017-09-11T05:09:58.349Z,67.70
2017-09-11T05:12:24.688Z,67.80
2017-09-11T05:14:51.771Z,67.30
2017-09-11T05:17:18.101Z,67.20
2017-09-11T05:19:44.452Z,67.20
2017-09-11T05:22:10.864Z,67.00
2017-09-11T05:24:37.949Z,67.40
2017-09-11T05:27:04.312Z,67.50
2017-09-11T05:29:33.510Z,67.10
2017-09-11T05:31:59.870Z,67.20
2017-09-11T05:34:26.230Z,67.00
2017-09-11T05:36:53.342Z,66.80
2017-09-11T05:39:19.689Z,66.80
2017-09-11T05:41:46.786Z,66.80
2017-09-11T05:44:13.147Z,66.80
2017-09-11T05:46:39.562Z,66.40
2017-09-11T05:49:05.980Z,66.10
2017-09-11T05:51:32.338Z,66.00
2017-09-11T05:53:59.282Z,66.10
2017-09-11T05:56:26.453Z,66.30
2017-09-11T05:58:52.817Z,66.20
2017-09-11T06:01:19.251Z,65.50
2017-09-11T06:03:46.125Z,65.30
2017-09-11T06:06:12.484Z,65.20
2017-09-11T06:08:38.841Z,64.80
2017-09-11T06:11:05.919Z,65.50
2017-09-11T06:13:32.079Z,65.40
2017-09-11T06:15:58.450Z,65.30
2017-09-11T06:18:25.393Z,65.00
2017-09-11T06:20:51.595Z,64.90
2017-09-11T06:23:17.762Z,65.00
2017-09-11T06:25:43.960Z,65.00
2017-09-11T06:28:10.907Z,64.60
2017-09-11T06:30:37.193Z,64.60
2017-09-11T06:33:03.606Z,64.60
2017-09-11T06:35:29.947Z,64.60
2017-09-11T06:37:56.390Z,65.40
2017-09-11T06:40:22.759Z,64.90
2017-09-11T06:42:49.880Z,64.10
2017-09-11T06:45:16.402Z,64.40
2017-09-11T06:47:42.750Z,64.00
2017-09-11T06:50:09.090Z,64.70
2017-09-11T06:52:35.433Z,64.50
2017-09-11T06:55:01.935Z,64.70
2017-09-11T06:57:28.315Z,64.70
2017-09-11T06:59:55.410Z,64.30
2017-09-11T07:02:21.582Z,64.20
2017-09-11T07:04:47.748Z,63.80
2017-09-11T07:07:13.881Z,63.60
2017-09-11T07:09:40.955Z,62.70
2017-09-11T07:12:19.514Z,62.50
2017-09-11T07:14:45.930Z,63.00
2017-09-11T07:17:12.262Z,62.00
2017-09-11T07:19:38.670Z,61.90
2017-09-11T07:22:05.038Z,62.90
2017-09-11T07:24:31.402Z,63.20
2017-09-11T07:26:58.466Z,61.80
2017-09-11T07:29:24.836Z,61.80
2017-09-11T07:31:51.890Z,60.80
2017-09-11T07:34:18.394Z,60.80
2017-09-11T07:36:45.495Z,60.30
2017-09-11T07:39:11.842Z,60.30
2017-09-11T07:41:38.177Z,59.70
2017-09-11T07:44:05.000Z,59.80
2017-09-11T07:46:31.353Z,59.20
2017-09-11T07:48:57.714Z,59.30
2017-09-11T07:51:24.800Z,60.40
2017-09-11T07:53:51.156Z,60.50
2017-09-11T07:56:17.558Z,59.30
2017-09-11T07:58:43.938Z,60.00
2017-09-11T08:01:12.277Z,59.00
2017-09-11T08:03:38.630Z,59.40
2017-09-11T08:06:05.102Z,59.00
2017-09-11T08:08:31.446Z,58.10
2017-09-11T08:10:57.869Z,58.20
2017-09-11T08:13:24.207Z,58.10
2017-09-11T08:15:50.532Z,58.50
2017-09-11T08:18:16.893Z,57.60
2017-09-11T08:20:43.974Z,56.70
2017-09-11T08:23:10.335Z,56.70
2017-09-11T08:25:36.698Z,56.60
2017-09-11T08:28:02.890Z,56.00
2017-09-11T08:30:29.780Z,55.10
2017-09-11T08:32:55.906Z,55.00
2017-09-11T08:35:25.413Z,55.30
2017-09-11T08:37:52.288Z,53.00
2017-09-11T08:40:19.193Z,52.60
2017-09-11T08:42:45.322Z,52.60
2017-09-11T08:45:11.485Z,52.90
2017-09-11T08:47:37.628Z,54.30
2017-09-11T08:50:03.795Z,53.10
2017-09-11T08:52:30.681Z,54.80
2017-09-11T08:54:56.822Z,54.80
2017-09-11T08:57:23.010Z,54.60
2017-09-11T08:59:49.149Z,54.20
2017-09-11T09:02:15.321Z,54.50
2017-09-11T09:04:41.453Z,54.00
2017-09-11T09:07:07.599Z,54.10
2017-09-11T09:09:36.254Z,52.80
2017-09-11T09:12:02.629Z,53.60
2017-09-11T09:14:28.968Z,55.10
2017-09-11T09:16:55.283Z,54.70
2017-09-11T09:19:21.618Z,53.50
2017-09-11T09:21:47.937Z,53.50
2017-09-11T09:24:14.351Z,53.10
2017-09-11T09:26:47.518Z,52.80
2017-09-11T09:29:13.936Z,52.50
2017-09-11T09:31:40.338Z,53.80
2017-09-11T09:34:06.722Z,50.20
2017-09-11T09:36:33.053Z,50.80
2017-09-11T09:38:59.386Z,51.70
2017-09-11T09:41:25.730Z,51.40
2017-09-11T09:43:52.062Z,52.00
2017-09-11T09:46:18.424Z,49.30
2017-09-11T09:48:44.751Z,50.60
2017-09-11T09:51:11.816Z,49.10
2017-09-11T09:53:38.131Z,49.20
2017-09-11T09:56:04.491Z,50.70
2017-09-11T09:58:30.832Z,51.10
2017-09-11T10:00:57.356Z,49.30
2017-09-11T10:03:23.692Z,50.60
2017-09-11T10:05:51.745Z,50.20
2017-09-11T10:08:18.074Z,48.50
2017-09-11T10:10:44.430Z,49.40
2017-09-11T10:13:10.800Z,48.00
2017-09-11T10:15:37.330Z,48.70
2017-09-11T10:18:03.708Z,49.70
2017-09-11T10:20:30.041Z,51.30
2017-09-11T10:23:01.894Z,51.60
2017-09-11T10:25:28.277Z,51.80
2017-09-11T10:27:54.632Z,52.00
2017-09-11T10:30:21.043Z,53.60
2017-09-11T10:32:48.109Z,54.20
2017-09-11T10:35:14.471Z,54.20
2017-09-11T10:37:41.562Z,54.70
2017-09-11T10:40:07.909Z,54.60
2017-09-11T10:42:34.070Z,54.70
2017-09-11T10:45:01.014Z,53.60
2017-09-11T10:47:27.910Z,53.20
2017-09-11T10:49:54.069Z,53.20
2017-09-11T10:52:20.247Z,54.20
2017-09-11T10:54:46.431Z,54.60
2017-09-11T10:57:12.588Z,57.30
2017-09-11T10:59:38.855Z,56.80
2017-09-11T11:02:04.991Z,57.70
2017-09-11T11:04:31.173Z,59.20
2017-09-11T11:06:57.335Z,59.30
2017-09-11T11:09:23.506Z,59.00
2017-09-11T11:11:49.677Z,60.40
2017-09-11T11:14:17.107Z,61.20
2017-09-11T11:16:43.296Z,60.20
2017-09-11T11:19:09.445Z,61.10
2017-09-11T11:21:35.639Z,59.60
2017-09-11T11:24:01.805Z,61.40
2017-09-11T11:26:28.709Z,62.60
2017-09-11T11:28:54.859Z,62.90
2017-09-11T11:31:21.143Z,63.20
2017-09-11T11:33:48.021Z,59.80
2017-09-11T11:36:14.176Z,59.80
2017-09-11T11:38:40.342Z,59.80
2017-09-11T11:41:06.724Z,58.50
2017-09-11T11:43:33.027Z,58.80
2017-09-11T11:45:59.164Z,57.70
2017-09-11T11:48:25.310Z,57.60
2017-09-11T11:50:56.573Z,57.10
2017-09-11T11:53:23.636Z,56.80
2017-09-11T11:55:50.736Z,54.60
2017-09-11T11:58:17.071Z,55.10
2017-09-11T12:00:44.153Z,54.30
2017-09-11T12:03:10.486Z,54.50
2017-09-11T12:05:36.834Z,54.30
2017-09-11T12:08:03.192Z,54.00
2017-09-11T12:10:29.583Z,52.10
2017-09-11T12:12:55.908Z,54.20
2017-09-11T12:15:22.289Z,50.50
2017-09-11T12:17:48.688Z,50.10
2017-09-11T12:20:14.997Z,49.40
2017-09-11T12:22:41.444Z,50.20
2017-09-11T12:25:07.809Z,49.30
2017-09-11T12:27:34.145Z,49.40
2017-09-11T12:30:02.484Z,49.70
2017-09-11T12:32:28.877Z,48.80
2017-09-11T12:34:55.219Z,48.80
2017-09-11T12:37:21.577Z,47.00
2017-09-11T12:39:47.947Z,47.80
2017-09-11T12:42:14.290Z,48.20
2017-09-11T12:44:40.653Z,46.20
2017-09-11T12:47:07.736Z,46.70
2017-09-11T12:49:34.065Z,46.70
2017-09-11T12:52:01.182Z,43.90
2017-09-11T12:54:27.524Z,43.60
2017-09-11T12:56:53.675Z,47.10
2017-09-11T12:59:19.844Z,45.30
2017-09-11T13:01:45.986Z,45.30
2017-09-11T13:04:12.145Z,46.50
2017-09-11T13:06:39.027Z,46.10
2017-09-11T13:09:09.679Z,46.10
2017-09-11T13:11:36.568Z,45.50
2017-09-11T13:14:02.798Z,45.50
2017-09-11T13:16:28.972Z,46.00
2017-09-11T13:18:55.214Z,44.50
2017-09-11T13:21:21.362Z,44.30
2017-09-11T13:23:48.253Z,41.40
2017-09-11T13:26:14.397Z,40.70
2017-09-11T13:28:46.625Z,42.70
2017-09-11T13:31:12.802Z,43.30
2017-09-11T13:33:38.975Z,43.40
2017-09-11T13:36:05.138Z,43.00
2017-09-11T13:38:31.277Z,43.20
2017-09-11T13:40:57.493Z,42.70
2017-09-11T13:43:23.663Z,43.40
2017-09-11T13:45:56.054Z,42.90
2017-09-11T13:48:22.385Z,44.20
2017-09-11T13:50:48.724Z,41.80
2017-09-11T13:53:15.822Z,41.00
2017-09-11T13:55:42.168Z,42.20
2017-09-11T13:58:09.248Z,42.20
2017-09-11T14:00:35.586Z,42.20
2017-09-11T14:03:03.718Z,42.50
2017-09-11T14:05:30.114Z,43.50
2017-09-11T14:07:56.484Z,42.20
2017-09-11T14:10:22.834Z,43.10
2017-09-11T14:12:49.187Z,43.80
2017-09-11T14:15:15.550Z,43.10
2017-09-11T14:17:41.919Z,44.20
2017-09-11T14:20:11.337Z,43.70
2017-09-11T14:22:37.694Z,44.60
2017-09-11T14:25:04.105Z,43.80
2017-09-11T14:27:31.207Z,43.30
2017-09-11T14:29:57.559Z,43.20
2017-09-11T14:32:24.614Z,41.80
2017-09-11T14:34:54.266Z,41.90
2017-09-11T14:37:20.653Z,42.10
2017-09-11T14:39:46.997Z,42.30
2017-09-11T14:42:13.335Z,41.70
2017-09-11T14:44:39.735Z,41.50
2017-09-11T14:47:06.831Z,41.80
2017-09-11T14:49:33.170Z,41.70
2017-09-11T14:52:05.710Z,40.60
2017-09-11T14:54:32.085Z,41.40
2017-09-11T14:56:59.179Z,42.30
2017-09-11T14:59:25.585Z,42.00
2017-09-11T15:01:51.975Z,42.00
2017-09-11T15:04:18.410Z,42.80
2017-09-11T15:06:45.126Z,42.20
2017-09-11T15:09:12.436Z,40.80
2017-09-11T15:11:38.827Z,40.80
2017-09-11T15:14:05.171Z,41.90
2017-09-11T15:16:31.591Z,41.20
2017-09-11T15:18:58.838Z,41.90
2017-09-11T15:21:25.249Z,41.20
2017-09-11T15:23:51.660Z,42.00
2017-09-11T15:26:18.088Z,41.70
2017-09-11T15:28:44.750Z,42.40
2017-09-11T15:31:11.131Z,43.20
2017-09-11T15:33:37.521Z,42.20
2017-09-11T15:36:03.934Z,42.40
2017-09-11T15:38:44.722Z,42.20
2017-09-11T15:41:13.839Z,42.00
2017-09-11T15:43:40.208Z,40.80
2017-09-11T15:46:07.325Z,41.60
2017-09-11T15:48:34.401Z,42.50
2017-09-11T15:51:00.805Z,41.70
2017-09-11T15:53:36.351Z,41.20
2017-09-11T15:56:02.734Z,42.40
2017-09-11T15:58:36.611Z,42.20
2017-09-11T16:01:03.746Z,42.70
2017-09-11T16:03:30.819Z,42.90
2017-09-11T16:05:57.163Z,42.90
2017-09-11T16:08:23.520Z,42.80
2017-09-11T16:10:49.880Z,43.00
2017-09-11T16:13:16.226Z,44.20
2017-09-11T16:15:43.328Z,44.30
2017-09-11T16:18:09.661Z,43.90
2017-09-11T16:20:36.025Z,42.60
2017-09-11T16:23:02.363Z,42.90
2017-09-11T16:25:28.785Z,43.30
2017-09-11T16:27:55.137Z,43.80
2017-09-11T16:30:22.438Z,44.10
2017-09-11T16:32:48.830Z,43.90
2017-09-11T16:35:15.178Z,43.50
2017-09-11T16:37:41.673Z,45.00
2017-09-11T16:40:08.044Z,44.40
2017-09-11T16:42:35.165Z,45.00
2017-09-11T16:45:01.592Z,45.00
2017-09-11T16:47:27.940Z,45.00
2017-09-11T16:49:54.280Z,46.40
2017-09-11T16:52:20.662Z,46.30
2017-09-11T16:54:47.084Z,47.50
2017-09-11T16:57:14.307Z,47.70
2017-09-11T16:59:40.782Z,47.70
2017-09-11T17:02:07.290Z,48.60
2017-09-11T17:04:33.674Z,49.90
2017-09-11T17:07:00.035Z,49.10
2017-09-11T17:09:26.282Z,49.60
2017-09-11T17:11:52.444Z,49.80
2017-09-11T17:14:18.605Z,49.80
2017-09-11T17:16:44.773Z,50.20
2017-09-11T17:19:13.126Z,51.30
2017-09-11T17:21:39.297Z,50.50
2017-09-11T17:24:05.506Z,50.50
2017-09-11T17:26:32.429Z,51.10
2017-09-11T17:28:58.581Z,51.10
2017-09-11T17:31:24.752Z,50.60
2017-09-11T17:33:50.925Z,51.30
2017-09-11T17:36:17.077Z,50.50
2017-09-11T17:38:43.502Z,51.20
2017-09-11T17:41:09.665Z,51.10
2017-09-11T17:43:35.853Z,51.00
2017-09-11T17:46:02.028Z,51.20
2017-09-11T17:48:28.962Z,51.60
2017-09-11T17:50:55.398Z,51.40
2017-09-11T17:53:21.755Z,50.80
2017-09-11T17:55:48.239Z,51.00
2017-09-11T17:58:14.613Z,49.80
2017-09-11T18:00:41.017Z,51.30
2017-09-11T18:03:07.372Z,51.60
2017-09-11T18:05:35.421Z,50.80
2017-09-11T18:08:01.733Z,50.60
2017-09-11T18:10:28.109Z,50.60
2017-09-11T18:13:23.563Z,50.70
2017-09-11T18:15:49.944Z,50.90
2017-09-11T18:18:17.067Z,51.60
2017-09-11T18:20:43.211Z,51.60
2017-09-11T18:23:09.683Z,51.30
2017-09-11T18:25:35.940Z,51.50
2017-09-11T18:28:03.027Z,51.50
2017-09-11T18:30:32.455Z,51.50
2017-09-11T18:32:58.842Z,51.70
2017-09-11T18:35:25.168Z,51.30
2017-09-11T18:37:51.570Z,52.60
2017-09-11T18:40:17.921Z,52.80
2017-09-11T18:42:45.049Z,52.20
2017-09-11T18:45:11.381Z,52.20
2017-09-11T18:47:38.446Z,52.40
2017-09-11T18:50:04.805Z,51.70
2017-09-11T18:52:31.189Z,52.70
2017-09-11T18:54:57.523Z,52.30
2017-09-11T18:57:24.249Z,52.20
2017-09-11T18:59:50.586Z,52.50
2017-09-11T19:02:16.979Z,52.30
2017-09-11T19:04:43.341Z,52.50
2017-09-11T19:07:10.257Z,53.30
2017-09-11T19:09:36.702Z,53.00
2017-09-11T19:12:03.145Z,52.80
2017-09-11T19:14:32.631Z,53.00
2017-09-11T19:16:59.025Z,53.00
2017-09-11T19:19:25.372Z,52.40
2017-09-11T19:21:51.724Z,52.40
2017-09-11T19:24:19.300Z,52.90
2017-09-11T19:26:46.409Z,53.30
2017-09-11T19:29:13.561Z,53.10
2017-09-11T19:31:40.037Z,53.10
2017-09-11T19:34:06.417Z,54.40
2017-09-11T19:36:32.767Z,54.20
2017-09-11T19:38:59.162Z,54.10
2017-09-11T19:41:25.576Z,53.30
2017-09-11T19:43:52.050Z,52.90
2017-09-11T19:46:19.879Z,54.10
2017-09-11T19:48:46.229Z,53.30
2017-09-11T19:51:12.638Z,54.50
2017-09-11T19:53:38.990Z,53.00
2017-09-11T19:56:05.351Z,52.90
2017-09-11T19:58:32.340Z,52.90
2017-09-11T20:00:59.377Z,52.80
2017-09-11T20:03:25.529Z,53.00
2017-09-11T20:05:51.762Z,53.10
2017-09-11T20:08:18.150Z,53.30
2017-09-11T20:10:44.387Z,52.60
2017-09-11T20:13:10.580Z,52.60
2017-09-11T20:15:37.597Z,53.10
2017-09-11T20:18:04.570Z,52.70
2017-09-11T20:20:30.861Z,53.40
2017-09-11T20:22:57.023Z,53.00
2017-09-11T20:25:23.211Z,52.90
2017-09-11T20:27:49.391Z,53.00
2017-09-11T20:30:15.566Z,53.30
2017-09-11T20:32:41.743Z,52.90
2017-09-11T20:35:07.853Z,52.50
2017-09-11T20:37:33.982Z,53.60
2017-09-11T20:40:00.222Z,53.20
2017-09-11T20:42:26.568Z,53.50
2017-09-11T20:44:52.881Z,52.60
2017-09-11T20:47:19.951Z,52.90
2017-09-11T20:49:46.327Z,52.80
2017-09-11T20:52:12.647Z,53.10
2017-09-11T20:54:39.795Z,53.20
2017-09-11T20:57:06.145Z,53.20
2017-09-11T20:59:32.545Z,53.80
2017-09-11T21:01:58.894Z,52.50
2017-09-11T21:04:25.627Z,52.50
2017-09-11T21:06:52.074Z,53.20
2017-09-11T21:09:18.493Z,52.70
2017-09-11T21:11:44.822Z,53.30
2017-09-11T21:14:11.569Z,53.00
2017-09-11T21:16:37.899Z,53.20
2017-09-11T21:19:04.375Z,54.00
2017-09-11T21:21:30.723Z,53.20
2017-09-11T21:23:57.062Z,53.70
2017-09-11T21:26:23.418Z,53.10
2017-09-11T21:28:50.539Z,53.60
2017-09-11T21:31:16.842Z,53.50
2017-09-11T21:33:43.951Z,53.10
2017-09-11T21:36:10.279Z,53.10
2017-09-11T21:38:36.720Z,53.70
2017-09-11T21:41:03.042Z,53.70
2017-09-11T21:43:30.494Z,53.20
2017-09-11T21:45:56.898Z,53.20
2017-09-11T21:48:24.023Z,53.20
2017-09-11T21:50:50.370Z,53.30
2017-09-11T21:53:16.733Z,53.30
2017-09-11T21:55:43.115Z,53.40
2017-09-11T21:58:10.191Z,52.70
2017-09-11T22:00:36.531Z,52.60
2017-09-11T22:03:03.683Z,53.30
2017-09-11T22:05:30.007Z,53.20
2017-09-11T22:07:56.331Z,53.30
2017-09-11T22:10:22.671Z,53.20
2017-09-11T22:12:49.024Z,53.20
2017-09-11T22:15:16.117Z,52.80
2017-09-11T22:17:42.461Z,52.90
2017-09-11T22:20:11.836Z,53.20
2017-09-11T22:22:38.591Z,52.90
2017-09-11T22:25:04.819Z,52.90
2017-09-11T22:27:30.985Z,52.90
2017-09-11T22:29:57.871Z,53.00
2017-09-11T22:32:24.006Z,53.10
2017-09-11T22:34:50.141Z,53.10
2017-09-11T22:37:16.279Z,52.60
2017-09-11T22:39:42.451Z,53.00
2017-09-11T22:42:08.589Z,53.40
2017-09-11T22:44:34.942Z,52.80
2017-09-11T22:47:01.330Z,53.10
2017-09-11T22:49:28.479Z,53.00
2017-09-11T22:51:54.860Z,52.90
2017-09-11T22:54:21.249Z,53.20
2017-09-11T22:56:47.556Z,53.70
2017-09-11T22:59:14.304Z,53.60
2017-09-11T23:01:42.041Z,52.70
2017-09-11T23:04:08.394Z,53.70
2017-09-11T23:06:34.727Z,53.20
2017-09-11T23:09:01.846Z,53.60
2017-09-11T23:11:28.025Z,53.60
2017-09-11T23:13:54.161Z,53.20
2017-09-11T23:16:20.303Z,54.10
2017-09-11T23:18:46.438Z,53.50
2017-09-11T23:21:12.776Z,53.20
2017-09-11T23:23:39.109Z,53.40
2017-09-11T23:26:06.191Z,53.70
2017-09-11T23:28:32.356Z,53.80
2017-09-11T23:30:59.226Z,53.70
2017-09-11T23:33:25.378Z,53.60
2017-09-11T23:35:51.523Z,54.00
2017-09-11T23:38:20.464Z,53.50
2017-09-11T23:40:46.686Z,53.40
2017-09-11T23:43:13.291Z,53.90
2017-09-11T23:45:39.450Z,53.70
2017-09-11T23:48:05.631Z,54.50
2017-09-11T23:50:31.815Z,53.60
2017-09-11T23:52:57.969Z,54.40
2017-09-11T23:55:24.202Z,54.00
2017-09-11T23:57:50.362Z,53.60
